Seisyu Maru — JD3882 — position and weather

sailwx.info

Track history (hours):
 
Tides and Currents Weather Stations Pressure Air Temp Water Temp Dewpoint Dewpoint Depression Visibility Wind Speed Wind Dir Waves Ship Positions

Seisyu Maru

Last reported at 2017-Oct-12 23:20 UTC. Time now 2017-Oct-20 17:40 UTC.
Position N 34°52' E 139°27'.

Length 84 m; draft 5 m.

Type: Cargo ship. MMSI: 431006647.

Date/timePositionNaut miles runAvg speedWind from/ knotsBaromVisibWave heightAir tempDewpointWater temp
2017-Oct-12 23:20N 34°52' E 139°27'612.9
2017-Oct-12 22:53N 34°54' E 139°33'411.6
2017-Oct-12 22:30N 34°56' E 139°38'612.0
2017-Oct-12 22:00N 34°59' E 139°44'510.7
2017-Oct-12 21:30N 35°01' E 139°50'0 0.0
2017-Oct-12 20:55N 35°01' E 139°50'0 0.0
2017-Oct-12 20:25N 35°01' E 139°50'0 0.0
2017-Oct-12 19:13N 35°01' E 139°50'0 0.2
2017-Oct-12 18:55N 35°01' E 139°50'0 0.0
2017-Oct-12 18:25N 35°01' E 139°50'0 0.0
2017-Oct-12 17:55N 35°01' E 139°50'0 0.0
2017-Oct-12 17:19N 35°01' E 139°50'0 0.0
2017-Oct-12 16:55N 35°01' E 139°50'0 0.0
2017-Oct-12 16:13N 35°01' E 139°50'0 0.0
2017-Oct-12 15:55N 35°01' E 139°50'0 0.0
2017-Oct-12 15:25N 35°01' E 139°50'0 0.0
2017-Oct-12 14:55N 35°01' E 139°50'0 0.0
2017-Oct-12 14:25N 35°01' E 139°50'0 0.0
2017-Oct-12 13:55N 35°01' E 139°50'0 0.0
2017-Oct-12 13:25N 35°01' E 139°50'0 0.0
2017-Oct-12 12:55N 35°01' E 139°50'0 0.0
2017-Oct-12 12:07N 35°01' E 139°50'0 0.0
2017-Oct-12 11:55N 35°01' E 139°50'0 0.0
2017-Oct-12 11:25N 35°01' E 139°50'0 0.0
2017-Oct-12 10:55N 35°01' E 139°50'0 0.0
2017-Oct-12 10:25N 35°01' E 139°50'0 0.0
2017-Oct-12 09:55N 35°01' E 139°50'0 0.0
2017-Oct-12 09:25N 35°01' E 139°50'0 0.0
2017-Oct-12 08:55N 35°01' E 139°50'0 0.0
2017-Oct-12 08:25N 35°01' E 139°50'0 0.0
2017-Oct-12 07:55N 35°01' E 139°50'0 0.0
2017-Oct-12 07:25N 35°01' E 139°50'0 0.0
2017-Oct-12 06:55N 35°01' E 139°50'2 3.7
2017-Oct-12 06:30N 35°01' E 139°49'5 9.8
2017-Oct-12 06:00N 34°58' E 139°44'14 9.7
2017-Oct-12 04:35N 34°54' E 140°00'311.9
2017-Oct-12 04:22N 34°55' E 140°03'13 0.4
2017-Oct-10 21:25N 34°51' E 139°48'814.6
2017-Oct-10 20:50N 34°50' E 139°38'1 0.0
2017-Oct-09 05:50N 34°51' E 139°38'512.6
2017-Oct-09 05:28N 34°51' E 139°44'1312.3
2017-Oct-09 04:23N 34°54' E 139°59'11 0.4
2017-Oct-07 20:35N 34°51' E 139°47'313.2
2017-Oct-07 20:20N 34°51' E 139°43'413.1
2017-Oct-07 20:00N 34°51' E 139°37'  
2017-Oct-05 05:59N 34°52' E 139°34'612.6
2017-Oct-05 05:29N 34°52' E 139°41'  
Track history (hours):
 
Tides and Currents Weather Stations Pressure Air Temp Water Temp Dewpoint Dewpoint Depression Visibility Wind Speed Wind Dir Waves Ship Positions

Seisyu Maru

Last reported at 2017-Oct-12 23:20 UTC. Time now 2017-Oct-20 17:40 UTC.
Position N 34°52' E 139°27'.

Length 84 m; draft 5 m.

Type: Cargo ship. MMSI: 431006647.

Date/timePositionNaut miles runAvg speedWind from/ knotsBaromVisibWave heightAir tempDewpointWater temp
2017-Oct-12 23:20N 34°52' E 139°27'612.9
2017-Oct-12 22:53N 34°54' E 139°33'411.6
2017-Oct-12 22:30N 34°56' E 139°38'612.0
2017-Oct-12 22:00N 34°59' E 139°44'510.7
2017-Oct-12 21:30N 35°01' E 139°50'0 0.0
2017-Oct-12 20:55N 35°01' E 139°50'0 0.0
2017-Oct-12 20:25N 35°01' E 139°50'0 0.0
2017-Oct-12 19:13N 35°01' E 139°50'0 0.2
2017-Oct-12 18:55N 35°01' E 139°50'0 0.0
2017-Oct-12 18:25N 35°01' E 139°50'0 0.0
2017-Oct-12 17:55N 35°01' E 139°50'0 0.0
2017-Oct-12 17:19N 35°01' E 139°50'0 0.0
2017-Oct-12 16:55N 35°01' E 139°50'0 0.0
2017-Oct-12 16:13N 35°01' E 139°50'0 0.0
2017-Oct-12 15:55N 35°01' E 139°50'0 0.0
2017-Oct-12 15:25N 35°01' E 139°50'0 0.0
2017-Oct-12 14:55N 35°01' E 139°50'0 0.0
2017-Oct-12 14:25N 35°01' E 139°50'0 0.0
2017-Oct-12 13:55N 35°01' E 139°50'0 0.0
2017-Oct-12 13:25N 35°01' E 139°50'0 0.0
2017-Oct-12 12:55N 35°01' E 139°50'0 0.0
2017-Oct-12 12:07N 35°01' E 139°50'0 0.0
2017-Oct-12 11:55N 35°01' E 139°50'0 0.0
2017-Oct-12 11:25N 35°01' E 139°50'0 0.0
2017-Oct-12 10:55N 35°01' E 139°50'0 0.0
2017-Oct-12 10:25N 35°01' E 139°50'0 0.0
2017-Oct-12 09:55N 35°01' E 139°50'0 0.0
2017-Oct-12 09:25N 35°01' E 139°50'0 0.0
2017-Oct-12 08:55N 35°01' E 139°50'0 0.0
2017-Oct-12 08:25N 35°01' E 139°50'0 0.0
2017-Oct-12 07:55N 35°01' E 139°50'0 0.0
2017-Oct-12 07:25N 35°01' E 139°50'0 0.0
2017-Oct-12 06:55N 35°01' E 139°50'2 3.7
2017-Oct-12 06:30N 35°01' E 139°49'5 9.8
2017-Oct-12 06:00N 34°58' E 139°44'14 9.7
2017-Oct-12 04:35N 34°54' E 140°00'311.9
2017-Oct-12 04:22N 34°55' E 140°03'13 0.4
2017-Oct-10 21:25N 34°51' E 139°48'814.6
2017-Oct-10 20:50N 34°50' E 139°38'1 0.0
2017-Oct-09 05:50N 34°51' E 139°38'512.6
2017-Oct-09 05:28N 34°51' E 139°44'1312.3
2017-Oct-09 04:23N 34°54' E 139°59'11 0.4
2017-Oct-07 20:35N 34°51' E 139°47'313.2
2017-Oct-07 20:20N 34°51' E 139°43'413.1
2017-Oct-07 20:00N 34°51' E 139°37'  
2017-Oct-05 05:59N 34°52' E 139°34'612.6
2017-Oct-05 05:29N 34°52' E 139°41'  

Dump ship's entire track history